Terminal Aerodrome Forecast
Issued by NWS

Home | Current Version | Previous Version | Text Only | Print | Product List | Glossary On
Versions: 1 2 3 4 5 6 7 8 9 10 11 12 13 14 15 16 17 18 19 20 21
000
FTAK31 PANC 251739
TAFAHO
TAF
PAHO 251739Z 2518/2618 VRB04KT P6SM VCSH BKN040 OVC060
     FM252100 05005KT P6SM -RA SCT025 OVC035
     FM261500 VRB05KT P6SM VCSH SCT015 OVC035=

USA.gov is the U.S. government's official web portal to all federal, state and local government web resources and services.